createdAt,value
2023-02-04T00:00:39.067Z,100.00
2023-02-04T00:03:11.892Z,100.00
2023-02-04T00:05:45.380Z,100.00
2023-02-04T00:08:18.002Z,100.00
2023-02-04T00:10:51.694Z,100.00
2023-02-04T00:13:24.518Z,100.00
2023-02-04T00:15:58.201Z,100.00
2023-02-04T00:18:31.799Z,100.00
2023-02-04T00:21:04.665Z,100.00
2023-02-04T00:23:37.764Z,100.00
2023-02-04T00:26:12.224Z,100.00
2023-02-04T00:28:45.526Z,100.00
2023-02-04T00:31:20.253Z,100.00
2023-02-04T00:33:53.512Z,100.00
2023-02-04T00:36:26.253Z,100.00
2023-02-04T00:38:59.147Z,100.00
2023-02-04T00:41:32.066Z,100.00
2023-02-04T00:44:05.551Z,100.00
2023-02-04T00:46:38.497Z,100.00
2023-02-04T00:49:12.442Z,100.00
2023-02-04T00:51:47.895Z,100.00
2023-02-04T00:54:20.956Z,100.00
2023-02-04T00:56:53.807Z,100.00
2023-02-04T00:59:27.743Z,100.00
2023-02-04T01:02:00.823Z,100.00
2023-02-04T01:04:34.603Z,100.00
2023-02-04T01:07:08.868Z,100.00
2023-02-04T01:09:41.330Z,100.00
2023-02-04T01:12:14.091Z,100.00
2023-02-04T01:14:47.525Z,100.00
2023-02-04T01:17:21.458Z,100.00
2023-02-04T01:19:55.293Z,100.00
2023-02-04T01:22:29.406Z,100.00
2023-02-04T01:25:02.231Z,100.00
2023-02-04T01:27:47.670Z,100.00
2023-02-04T01:30:21.133Z,100.00
2023-02-04T01:32:54.363Z,100.00
2023-02-04T01:35:27.540Z,100.00
2023-02-04T01:38:00.598Z,100.00
2023-02-04T01:40:35.025Z,100.00
2023-02-04T01:43:08.668Z,100.00
2023-02-04T01:45:41.585Z,100.00
2023-02-04T01:48:16.212Z,100.00
2023-02-04T01:50:54.363Z,100.00
2023-02-04T01:53:28.537Z,100.00
2023-02-04T01:56:02.013Z,100.00
2023-02-04T01:58:35.902Z,100.00
2023-02-04T02:01:15.109Z,100.00
2023-02-04T02:03:47.799Z,100.00
2023-02-04T02:06:21.194Z,100.00
2023-02-04T02:08:54.777Z,100.00
2023-02-04T02:11:28.733Z,100.00
2023-02-04T02:14:02.741Z,100.00
2023-02-04T02:16:35.947Z,100.00
2023-02-04T02:19:11.717Z,100.00
2023-02-04T02:21:49.199Z,100.00
2023-02-04T02:24:34.362Z,100.00
2023-02-04T02:27:10.648Z,100.00
2023-02-04T02:29:44.588Z,100.00
2023-02-04T02:32:16.945Z,100.00
2023-02-04T02:34:50.843Z,100.00
2023-02-04T02:37:23.688Z,100.00
2023-02-04T02:39:56.577Z,100.00
2023-02-04T02:42:29.555Z,100.00
2023-02-04T02:45:07.077Z,100.00
2023-02-04T02:47:40.056Z,100.00
2023-02-04T02:50:16.731Z,100.00
2023-02-04T02:52:49.645Z,100.00
2023-02-04T02:55:25.766Z,100.00
2023-02-04T02:57:59.221Z,100.00
2023-02-04T03:00:32.867Z,100.00
2023-02-04T03:03:22.496Z,100.00
2023-02-04T03:05:59.483Z,100.00
2023-02-04T03:08:33.198Z,100.00
2023-02-04T03:11:06.615Z,100.00
2023-02-04T03:13:39.800Z,100.00
2023-02-04T03:16:12.758Z,100.00
2023-02-04T03:18:45.708Z,100.00
2023-02-04T03:21:18.827Z,100.00
2023-02-04T03:23:52.080Z,100.00
2023-02-04T03:26:26.760Z,100.00
2023-02-04T03:29:00.650Z,100.00
2023-02-04T03:31:34.238Z,100.00
2023-02-04T03:34:07.564Z,100.00
2023-02-04T03:36:40.660Z,100.00
2023-02-04T03:39:14.039Z,100.00
2023-02-04T03:41:47.439Z,100.00
2023-02-04T03:44:22.123Z,100.00
2023-02-04T03:46:56.761Z,100.00
2023-02-04T03:49:29.642Z,100.00
2023-02-04T03:52:02.825Z,100.00
2023-02-04T03:54:35.985Z,100.00
2023-02-04T03:57:08.844Z,100.00
2023-02-04T03:59:42.033Z,100.00
2023-02-04T04:02:14.743Z,100.00
2023-02-04T04:04:47.716Z,100.00
2023-02-04T04:07:20.438Z,100.00
2023-02-04T04:09:53.666Z,100.00
2023-02-04T04:12:26.823Z,100.00
2023-02-04T04:15:00.405Z,100.00
2023-02-04T04:17:33.590Z,100.00
2023-02-04T04:20:08.174Z,100.00
2023-02-04T04:22:41.211Z,100.00
2023-02-04T04:25:13.964Z,100.00
2023-02-04T04:27:46.954Z,100.00
2023-02-04T04:30:20.777Z,100.00
2023-02-04T04:32:53.560Z,100.00
2023-02-04T04:35:27.052Z,100.00
2023-02-04T04:37:59.885Z,100.00
2023-02-04T04:40:33.476Z,100.00
2023-02-04T04:43:06.657Z,100.00
2023-02-04T04:45:39.982Z,100.00
2023-02-04T04:48:12.892Z,100.00
2023-02-04T04:50:46.258Z,100.00
2023-02-04T04:53:19.498Z,100.00
2023-02-04T04:55:52.240Z,100.00
2023-02-04T04:58:25.399Z,100.00
2023-02-04T05:00:58.671Z,100.00
2023-02-04T05:03:31.631Z,100.00
2023-02-04T05:06:04.913Z,100.00
2023-02-04T05:08:38.160Z,100.00
2023-02-04T05:11:11.678Z,100.00
2023-02-04T05:13:44.586Z,100.00
2023-02-04T05:16:18.544Z,100.00
2023-02-04T05:18:51.448Z,100.00
2023-02-04T05:21:24.431Z,100.00
2023-02-04T05:23:57.280Z,100.00
2023-02-04T05:26:31.339Z,100.00
2023-02-04T05:29:04.775Z,100.00
2023-02-04T05:31:38.005Z,100.00
2023-02-04T05:34:10.818Z,100.00
2023-02-04T05:36:44.252Z,100.00
2023-02-04T05:39:17.295Z,100.00
2023-02-04T05:41:50.271Z,100.00
2023-02-04T05:44:23.261Z,100.00
2023-02-04T05:46:56.235Z,100.00
2023-02-04T05:49:29.284Z,100.00
2023-02-04T05:52:02.208Z,100.00
2023-02-04T05:54:35.420Z,100.00
2023-02-04T05:57:08.617Z,100.00
2023-02-04T05:59:41.899Z,100.00
2023-02-04T06:02:16.456Z,100.00
2023-02-04T06:04:49.559Z,100.00
2023-02-04T06:07:22.502Z,100.00
2023-02-04T06:09:55.581Z,100.00
2023-02-04T06:12:28.464Z,100.00
2023-02-04T06:15:01.562Z,100.00
2023-02-04T06:17:34.800Z,100.00
2023-02-04T06:20:08.941Z,100.00
2023-02-04T06:22:42.260Z,100.00
2023-02-04T06:25:15.578Z,100.00
2023-02-04T06:27:49.386Z,100.00
2023-02-04T06:30:22.407Z,100.00
2023-02-04T06:32:55.603Z,100.00
2023-02-04T06:35:28.514Z,100.00
2023-02-04T06:38:01.878Z,100.00
2023-02-04T06:40:34.985Z,100.00
2023-02-04T06:43:08.043Z,100.00
2023-02-04T06:45:41.476Z,100.00
2023-02-04T06:48:14.653Z,100.00
2023-02-04T06:50:47.960Z,100.00
2023-02-04T06:53:21.040Z,100.00
2023-02-04T06:55:53.820Z,100.00
2023-02-04T06:58:26.824Z,100.00
2023-02-04T07:00:59.749Z,100.00
2023-02-04T07:03:32.615Z,100.00
2023-02-04T07:06:05.849Z,100.00
2023-02-04T07:08:38.419Z,100.00
2023-02-04T07:11:12.588Z,100.00
2023-02-04T07:13:45.626Z,100.00
2023-02-04T07:16:18.779Z,100.00
2023-02-04T07:18:51.787Z,100.00
2023-02-04T07:21:24.714Z,100.00
2023-02-04T07:23:57.558Z,100.00
2023-02-04T07:26:32.169Z,100.00
2023-02-04T07:29:07.121Z,100.00
2023-02-04T07:31:39.894Z,100.00
2023-02-04T07:34:16.160Z,100.00
2023-02-04T07:36:49.022Z,100.00
2023-02-04T07:39:22.409Z,100.00
2023-02-04T07:41:55.687Z,100.00
2023-02-04T07:44:30.105Z,100.00
2023-02-04T07:47:02.898Z,100.00
2023-02-04T07:49:35.685Z,100.00
2023-02-04T07:52:09.881Z,100.00
2023-02-04T07:54:43.187Z,100.00
2023-02-04T07:57:15.894Z,100.00
2023-02-04T07:59:49.195Z,100.00
2023-02-04T08:02:22.237Z,100.00
2023-02-04T08:04:55.176Z,100.00
2023-02-04T08:07:28.148Z,100.00
2023-02-04T08:10:01.025Z,100.00
2023-02-04T08:12:34.927Z,100.00
2023-02-04T08:15:09.379Z,100.00
2023-02-04T08:17:43.065Z,100.00
2023-02-04T08:20:17.938Z,100.00
2023-02-04T08:22:50.987Z,100.00
2023-02-04T08:25:23.876Z,100.00
2023-02-04T08:27:57.483Z,100.00
2023-02-04T08:30:32.215Z,100.00
2023-02-04T08:33:05.929Z,100.00
2023-02-04T08:35:38.824Z,100.00
2023-02-04T08:38:11.631Z,100.00
2023-02-04T08:40:44.972Z,100.00
2023-02-04T08:43:17.748Z,100.00
2023-02-04T08:45:51.403Z,100.00
2023-02-04T08:48:24.201Z,100.00
2023-02-04T08:50:57.516Z,100.00
2023-02-04T08:53:30.731Z,100.00
2023-02-04T08:56:03.779Z,100.00
2023-02-04T08:58:38.009Z,100.00
2023-02-04T09:01:11.633Z,100.00
2023-02-04T09:03:45.149Z,100.00
2023-02-04T09:06:18.038Z,100.00
2023-02-04T09:08:50.879Z,100.00
2023-02-04T09:11:24.148Z,100.00
2023-02-04T09:13:58.565Z,100.00
2023-02-04T09:16:31.850Z,100.00
2023-02-04T09:19:06.612Z,100.00
2023-02-04T09:21:39.685Z,100.00
2023-02-04T09:24:12.678Z,100.00
2023-02-04T09:26:45.756Z,99.63
2023-02-04T09:29:19.004Z,99.15
2023-02-04T09:31:51.947Z,98.88
2023-02-04T09:34:25.481Z,98.39
2023-02-04T09:36:58.249Z,98.23
2023-02-04T09:39:31.676Z,97.82
2023-02-04T09:42:05.108Z,98.18
2023-02-04T09:44:38.573Z,98.31
2023-02-04T09:47:13.473Z,98.38
2023-02-04T09:49:47.692Z,98.14
2023-02-04T09:52:20.925Z,98.22
2023-02-04T09:54:53.916Z,98.28
2023-02-04T09:57:26.675Z,97.87
2023-02-04T09:59:59.309Z,97.95
2023-02-04T10:02:32.460Z,97.96
2023-02-04T10:05:05.607Z,97.93
2023-02-04T10:07:38.684Z,97.69
2023-02-04T10:10:25.438Z,97.11
2023-02-04T10:13:01.256Z,96.94
2023-02-04T10:15:35.655Z,97.01
2023-02-04T10:18:10.441Z,96.76
2023-02-04T10:20:43.413Z,96.47
2023-02-04T10:23:16.878Z,96.26
2023-02-04T10:25:49.707Z,96.10
2023-02-04T10:28:22.750Z,96.16
2023-02-04T10:30:55.784Z,96.29
2023-02-04T10:33:29.113Z,96.24
2023-02-04T10:36:02.157Z,96.11
2023-02-04T10:38:36.002Z,96.14
2023-02-04T10:41:10.851Z,96.17
2023-02-04T10:43:44.058Z,96.19
2023-02-04T10:46:20.586Z,96.17
2023-02-04T10:48:54.132Z,96.25
2023-02-04T10:51:27.190Z,96.02
2023-02-04T10:54:18.441Z,95.99
2023-02-04T10:56:52.429Z,95.64
2023-02-04T10:59:28.241Z,95.71
2023-02-04T11:02:04.166Z,95.83
2023-02-04T11:04:38.741Z,96.13
2023-02-04T11:07:14.434Z,96.44
2023-02-04T11:09:48.778Z,96.75
2023-02-04T11:12:46.722Z,96.50
2023-02-04T11:15:50.796Z,96.07
2023-02-04T11:18:30.207Z,95.90
2023-02-04T11:21:03.395Z,95.93
2023-02-04T11:23:37.580Z,96.03
2023-02-04T11:26:22.451Z,95.98
2023-02-04T11:29:06.056Z,96.37
2023-02-04T11:31:59.040Z,96.40
2023-02-04T11:34:33.959Z,96.60
2023-02-04T11:37:20.128Z,96.29
2023-02-04T11:39:53.197Z,96.49
2023-02-04T11:42:42.594Z,96.94
2023-02-04T11:45:22.743Z,97.14
2023-02-04T11:47:58.842Z,97.15
2023-02-04T11:50:35.377Z,97.16
2023-02-04T11:53:11.497Z,97.21
2023-02-04T11:55:48.490Z,97.26
2023-02-04T11:58:24.548Z,97.28
2023-02-04T12:00:57.530Z,97.09
2023-02-04T12:03:36.844Z,96.85
2023-02-04T12:06:09.686Z,96.66
2023-02-04T12:08:43.204Z,96.80
2023-02-04T12:11:29.937Z,97.15
2023-02-04T12:14:14.077Z,97.60
2023-02-04T12:16:52.387Z,97.50
2023-02-04T12:19:27.583Z,97.55
2023-02-04T12:21:59.727Z,97.15
2023-02-04T12:24:32.687Z,96.51
2023-02-04T12:27:05.716Z,96.27
2023-02-04T12:29:39.123Z,96.39
2023-02-04T12:32:11.935Z,96.52
2023-02-04T12:34:45.407Z,96.69
2023-02-04T12:37:18.368Z,96.73
2023-02-04T12:39:51.130Z,96.90
2023-02-04T12:42:24.238Z,97.00
2023-02-04T12:44:57.080Z,97.27
2023-02-04T12:47:29.922Z,97.66
2023-02-04T12:50:03.029Z,98.12
2023-02-04T12:52:37.205Z,98.46
2023-02-04T12:55:10.915Z,98.81
2023-02-04T12:57:43.917Z,99.15
2023-02-04T13:00:19.288Z,99.39
2023-02-04T13:02:52.155Z,99.75
2023-02-04T13:05:25.023Z,100.00
2023-02-04T13:07:58.953Z,100.00
2023-02-04T13:10:31.907Z,100.00
2023-02-04T13:13:05.234Z,100.00
2023-02-04T13:15:39.390Z,100.00
2023-02-04T13:18:12.227Z,100.00
2023-02-04T13:20:46.319Z,100.00
2023-02-04T13:23:19.127Z,100.00
2023-02-04T13:25:52.186Z,100.00
2023-02-04T13:28:25.106Z,100.00
2023-02-04T13:30:58.100Z,100.00
2023-02-04T13:33:31.252Z,100.00
2023-02-04T13:36:04.756Z,100.00
2023-02-04T13:38:37.722Z,100.00
2023-02-04T13:41:10.861Z,100.00
2023-02-04T13:43:44.029Z,100.00
2023-02-04T13:46:17.014Z,100.00
2023-02-04T13:48:51.024Z,100.00
2023-02-04T13:51:24.152Z,100.00
2023-02-04T13:53:57.474Z,100.00
2023-02-04T13:56:32.348Z,100.00
2023-02-04T13:59:05.832Z,100.00
2023-02-04T14:01:39.406Z,100.00
2023-02-04T14:04:12.084Z,100.00
2023-02-04T14:06:44.984Z,100.00
2023-02-04T14:09:18.144Z,100.00
2023-02-04T14:11:52.045Z,100.00
2023-02-04T14:14:24.885Z,100.00
2023-02-04T14:16:58.486Z,100.00
2023-02-04T14:19:31.498Z,100.00
2023-02-04T14:22:04.491Z,100.00
2023-02-04T14:24:39.016Z,100.00
2023-02-04T14:27:12.485Z,100.00
2023-02-04T14:29:45.352Z,100.00
2023-02-04T14:32:18.753Z,100.00
2023-02-04T14:34:52.607Z,100.00
2023-02-04T14:37:27.408Z,100.00
2023-02-04T14:40:01.395Z,100.00
2023-02-04T14:42:34.511Z,100.00
2023-02-04T14:45:12.596Z,100.00
2023-02-04T14:47:46.539Z,100.00
2023-02-04T14:50:20.104Z,100.00
2023-02-04T14:52:52.935Z,100.00
2023-02-04T14:55:27.477Z,100.00
2023-02-04T14:58:00.443Z,100.00
2023-02-04T15:00:34.083Z,100.00
2023-02-04T15:03:07.533Z,100.00
2023-02-04T15:05:41.309Z,100.00
2023-02-04T15:08:14.207Z,100.00
2023-02-04T15:10:47.696Z,100.00
2023-02-04T15:13:21.297Z,100.00
2023-02-04T15:15:54.448Z,100.00
2023-02-04T15:18:27.525Z,100.00
2023-02-04T15:21:02.100Z,100.00
2023-02-04T15:23:35.759Z,100.00
2023-02-04T15:26:08.583Z,100.00
2023-02-04T15:28:42.586Z,100.00
2023-02-04T15:31:15.662Z,100.00
2023-02-04T15:33:49.376Z,100.00
2023-02-04T15:36:22.439Z,100.00
2023-02-04T15:38:55.221Z,100.00
2023-02-04T15:41:27.853Z,100.00
2023-02-04T15:44:00.744Z,100.00
2023-02-04T15:46:36.437Z,100.00
2023-02-04T15:49:09.669Z,100.00
2023-02-04T15:51:42.959Z,100.00
2023-02-04T15:54:16.668Z,100.00
2023-02-04T15:56:49.729Z,100.00
2023-02-04T15:59:23.616Z,100.00
2023-02-04T16:01:57.210Z,100.00
2023-02-04T16:04:30.264Z,100.00
2023-02-04T16:07:04.944Z,100.00
2023-02-04T16:09:38.669Z,100.00
2023-02-04T16:12:11.939Z,100.00
2023-02-04T16:14:44.895Z,100.00
2023-02-04T16:17:19.154Z,100.00
2023-02-04T16:19:52.707Z,100.00
2023-02-04T16:22:26.081Z,100.00
2023-02-04T16:24:59.325Z,100.00
2023-02-04T16:27:32.194Z,100.00
2023-02-04T16:30:06.563Z,100.00
2023-02-04T16:32:39.416Z,100.00
2023-02-04T16:35:12.286Z,100.00
2023-02-04T16:37:45.771Z,100.00
2023-02-04T16:40:19.713Z,100.00
2023-02-04T16:42:52.821Z,100.00
2023-02-04T16:45:25.680Z,100.00
2023-02-04T16:47:58.594Z,100.00
2023-02-04T16:50:32.806Z,100.00
2023-02-04T16:53:06.120Z,100.00
2023-02-04T16:55:39.925Z,100.00
2023-02-04T16:58:13.833Z,100.00
2023-02-04T17:00:46.887Z,100.00
2023-02-04T17:03:20.398Z,100.00
2023-02-04T17:05:53.121Z,100.00
2023-02-04T17:08:26.401Z,100.00
2023-02-04T17:11:17.234Z,100.00
2023-02-04T17:13:50.101Z,100.00
2023-02-04T17:16:23.640Z,100.00
2023-02-04T17:18:57.241Z,100.00
2023-02-04T17:21:31.681Z,100.00
2023-02-04T17:24:04.627Z,100.00
2023-02-04T17:26:39.880Z,100.00
2023-02-04T17:29:17.567Z,100.00
2023-02-04T17:31:50.536Z,100.00
2023-02-04T17:34:23.996Z,100.00
2023-02-04T17:36:57.830Z,100.00
2023-02-04T17:39:32.373Z,100.00
2023-02-04T17:42:05.516Z,100.00
2023-02-04T17:44:38.562Z,100.00
2023-02-04T17:47:11.671Z,100.00
2023-02-04T17:49:44.636Z,100.00
2023-02-04T17:52:17.417Z,100.00
2023-02-04T17:54:50.726Z,100.00
2023-02-04T17:57:23.948Z,100.00
2023-02-04T17:59:57.206Z,100.00
2023-02-04T18:02:32.298Z,100.00
2023-02-04T18:05:16.078Z,100.00
2023-02-04T18:08:00.746Z,100.00
2023-02-04T18:10:35.338Z,100.00
2023-02-04T18:13:26.641Z,100.00
2023-02-04T18:16:03.149Z,100.00
2023-02-04T18:18:41.198Z,100.00
2023-02-04T18:21:34.332Z,100.00
2023-02-04T18:24:30.628Z,100.00
2023-02-04T18:27:19.465Z,100.00
2023-02-04T18:29:59.318Z,100.00
2023-02-04T18:32:41.075Z,100.00
2023-02-04T18:35:40.301Z,100.00
2023-02-04T18:38:37.712Z,100.00
2023-02-04T18:41:23.712Z,100.00
2023-02-04T18:44:06.289Z,100.00
2023-02-04T18:46:43.195Z,100.00
2023-02-04T18:49:29.347Z,100.00
2023-02-04T18:52:06.573Z,100.00
2023-02-04T18:54:42.488Z,100.00
2023-02-04T18:57:24.434Z,100.00
2023-02-04T19:00:18.444Z,100.00
2023-02-04T19:03:00.862Z,100.00
2023-02-04T19:05:40.362Z,100.00
2023-02-04T19:08:29.388Z,100.00
2023-02-04T19:11:02.739Z,100.00
2023-02-04T19:13:44.531Z,100.00
2023-02-04T19:16:36.662Z,100.00
2023-02-04T19:19:42.397Z,100.00
2023-02-04T19:22:21.836Z,100.00
2023-02-04T19:25:20.708Z,100.00
2023-02-04T19:28:00.284Z,100.00
2023-02-04T19:30:38.269Z,100.00
2023-02-04T19:33:33.209Z,100.00
2023-02-04T19:36:40.221Z,100.00
2023-02-04T19:39:34.109Z,100.00
2023-02-04T19:42:26.983Z,100.00
2023-02-04T19:45:03.324Z,100.00
2023-02-04T19:47:45.571Z,100.00
2023-02-04T19:50:36.907Z,100.00
2023-02-04T19:53:27.096Z,100.00
2023-02-04T19:55:59.973Z,100.00
2023-02-04T19:58:43.691Z,100.00
2023-02-04T20:01:21.212Z,100.00
2023-02-04T20:03:54.072Z,100.00
2023-02-04T20:06:36.496Z,100.00
2023-02-04T20:09:29.707Z,100.00
2023-02-04T20:12:06.643Z,100.00
2023-02-04T20:14:53.949Z,100.00
2023-02-04T20:17:41.809Z,100.00
2023-02-04T20:20:32.820Z,100.00
2023-02-04T20:23:30.608Z,100.00
2023-02-04T20:26:03.827Z,100.00
2023-02-04T20:28:42.605Z,100.00
2023-02-04T20:31:26.071Z,100.00
2023-02-04T20:34:01.119Z,100.00
2023-02-04T20:36:39.387Z,100.00
2023-02-04T20:39:36.448Z,100.00
2023-02-04T20:42:25.659Z,100.00
2023-02-04T20:45:20.078Z,100.00
2023-02-04T20:47:57.794Z,100.00
2023-02-04T20:50:52.296Z,100.00
2023-02-04T20:53:57.390Z,100.00
2023-02-04T20:56:39.545Z,100.00
2023-02-04T20:59:31.116Z,100.00
2023-02-04T21:02:05.228Z,100.00
2023-02-04T21:04:47.206Z,100.00
2023-02-04T21:07:23.190Z,100.00
2023-02-04T21:09:58.121Z,100.00
2023-02-04T21:12:32.264Z,100.00
2023-02-04T21:15:05.007Z,100.00
2023-02-04T21:17:37.891Z,100.00
2023-02-04T21:20:12.230Z,100.00
2023-02-04T21:22:45.757Z,100.00
2023-02-04T21:25:18.956Z,100.00
2023-02-04T21:27:52.309Z,100.00
2023-02-04T21:30:27.589Z,100.00
2023-02-04T21:33:02.157Z,100.00
2023-02-04T21:35:34.486Z,100.00
2023-02-04T21:38:08.447Z,100.00
2023-02-04T21:40:41.759Z,100.00
2023-02-04T21:43:14.954Z,100.00
2023-02-04T21:45:47.949Z,100.00
2023-02-04T21:48:20.657Z,100.00
2023-02-04T21:50:54.791Z,100.00
2023-02-04T21:53:27.736Z,100.00
2023-02-04T21:56:00.817Z,100.00
2023-02-04T21:58:34.174Z,100.00
2023-02-04T22:01:07.550Z,100.00
2023-02-04T22:03:40.433Z,100.00
2023-02-04T22:06:13.531Z,100.00
2023-02-04T22:08:46.638Z,100.00
2023-02-04T22:11:20.010Z,100.00
2023-02-04T22:13:53.412Z,100.00
2023-02-04T22:16:27.052Z,100.00
2023-02-04T22:19:00.473Z,100.00
2023-02-04T22:21:35.147Z,100.00
2023-02-04T22:24:08.430Z,100.00
2023-02-04T22:26:41.474Z,100.00
2023-02-04T22:29:15.113Z,100.00
2023-02-04T22:31:47.855Z,100.00
2023-02-04T22:34:20.943Z,100.00
2023-02-04T22:36:55.818Z,100.00
2023-02-04T22:39:28.738Z,100.00
2023-02-04T22:42:02.222Z,100.00
2023-02-04T22:44:35.098Z,100.00
2023-02-04T22:47:08.555Z,100.00
2023-02-04T22:49:44.358Z,100.00
2023-02-04T22:52:17.858Z,100.00
2023-02-04T22:54:50.722Z,100.00
2023-02-04T22:57:23.979Z,100.00
2023-02-04T22:59:56.785Z,100.00
2023-02-04T23:02:30.039Z,100.00
2023-02-04T23:05:03.084Z,100.00
2023-02-04T23:07:37.351Z,100.00
2023-02-04T23:10:10.884Z,100.00
2023-02-04T23:12:44.439Z,100.00
2023-02-04T23:15:17.603Z,100.00
2023-02-04T23:17:52.641Z,100.00
2023-02-04T23:20:25.485Z,100.00
2023-02-04T23:22:58.715Z,100.00
2023-02-04T23:25:32.021Z,100.00
2023-02-04T23:28:06.155Z,100.00
2023-02-04T23:30:39.267Z,100.00
2023-02-04T23:33:12.078Z,100.00
2023-02-04T23:35:44.937Z,100.00
2023-02-04T23:38:17.885Z,100.00
2023-02-04T23:40:51.452Z,100.00
2023-02-04T23:43:24.352Z,100.00
2023-02-04T23:45:57.553Z,100.00
2023-02-04T23:48:31.570Z,100.00
2023-02-04T23:51:06.604Z,100.00
2023-02-04T23:53:39.400Z,100.00
2023-02-04T23:56:12.135Z,100.00
2023-02-04T23:58:44.957Z,100.00
